Aviation Digital Data Service (ADDS)

Output produced by METARs form (1825 UTC 16 August 2018)
found at http://www.aviationweather.gov/adds/metars/
 
SPHY 161700Z 1618/1718 VRB02KT 9999 FEW015 SCT040 TX12/1619Z TNM05/1711Z 
     TEMPO 1618/1622 36012KT FEW020TCU BKN050 
     BECMG 1623/1702 00000KT 
     BECMG 1708/1710 CAVOK
       
TAF SPQU 161700Z 1618/1718 27010KT CAVOK TX22/1619Z TN08/1711Z 
     BECMG 1700/1502 03005KT 
     FM170900 06012KT CAVOK 
     BECMG 1713/1715 25010KT
       
SPHO 161700Z 1618/1718 06007KT 9999 FEW050 BKN090 TX24/1619Z TN10/1711Z 
     TEMPO 1619/1623 FEW045 FEW050TCU BKN100 
     BECMG 1623/1702 00000KT CAVOK
       
SPJR 161700Z 1618/1718 26007KT 9999 SCT026 BKN043 TX23/1619Z TN04/1710Z 
     BECMG 1623/1701 05004KT SCT030 OVC040
       
SPHI 161700Z 1618/1718 19015KT CAVOK TX23/1619Z TN16/1711Z 
     BECMG 1700/1701 BKN012 
     FM170400 17010KT 9999 SCT012 
     FM171000 18008KT 9999 BKN015
       
TAF SPZO 161700Z 1618/1718 36005KT 9999 SCT046 SCT080 TX20/1619Z TN02/1711Z 
     TEMPO 1618/1622 27012KT FEW040TCU SCT050 BKN100 
     BECMG 1623/1702 00000KT FEW050 
     FM171100 SCT046 SCT080
       
SPLO 161700Z 1618/1718 25010KT CAVOK TX19/1619Z TN13/1710Z
       
TAF SPQT 161700Z 1618/1718 15008KT 9999 BKN020 BKN100 TX23/1619Z TN16/1711Z 
     BECMG 1700/1701 BKN012 
     FM170400 17010KT 9999 SCT012 
     FM171000 18008KT 9999 BKN015
       
SPJI 161700Z 1618/1718 00000KT 9999 SCT020 OVC080 TX29/1621Z TN16/1711Z 
     PROB40 
     TEMPO 1618/1621 FEW030TCU BKN100 
     BECMG 1700/1703 00000KT CAVOK
       
SPJL 161700Z 1618/1718 VRB05KT 9999 SCT015 TX17/1619Z TNM04/1710Z 
     FM162100 13010KT CAVOK 
     FM170900 VRB05KT CAVOK
       
SPSO 161700Z 1618/1718 27010KT 8000 NSC TX20/1619Z TN14/1711Z 
     FM162200 23012KT 8000 FEW020 
     BECMG 1703/1705 07004KT BKN012 
     FM170800 VRB02KT 5000 BR OVC010 
     FM171500 29007KT 8000 BKN015
       
SPCL 161700Z 1618/1718 14008KT 9999 BKN020 BKN070 TX29/1620Z TN23/1711Z 
     TEMPO 1618/1622 30012KT 4000 SHRA BKN020 FEW030TCU SCT100 
     BECMG 1700/1703 00000KT 9999 FEW010 
     PROB40 
     TEMPO 1708/1712 08008KT 2000 BR SCT010 
     BECMG 1712/1715 36004KT 9999 SCT020
       
SPTU 161700Z 1618/1718 14007KT CAVOK TX30/1619Z TN21/1711Z
       
SPTN 161700Z 1618/1718 24007KT CAVOK TX20/1619Z TN11/1711Z 
     FM162200 22006KT 8000 BKN020 
     FM171400 20005KT CAVOK
       
SPYL 161700Z 1618/1718 19013KT CAVOK TX26/1719Z TN15/1711Z
       
SPST 161700Z 1618/1718 15008KT 9999 SCT020 BKN080 TX33/1620Z TN20/1711Z 
     PROB30 
     TEMPO 16 
     FM170500 18005KT 8000 OVC015 
     TEMPO 1709/1712 4000 BR
       
SPGM 161700Z 1618/1718 VRB02KT 9000 SCT020 BKN080 TX32/1619Z TN20/1711Z 
     TEMPO 1712/1715 2000 DZ BR SCT008 OVC070
       
SPRU 161700Z 1618/1718 17010KT 8000 BKN014 TX19/1618Z TN15/1711Z 
     TEMPO 17120/1723 SCT016 
     FM170100 14008KT 7000 OVC013 
     BECMG 1704/1706 5000 BR OVC010 
     FM171500 16009KT 8000 BKN012
       
TAF SPME 161700Z 1618/1718 32010KT 9999 BKN013 TX27/1619Z TN19/1711Z 
     BECMG 1623/1701 25004KT OVC012
       
SPMS 161700Z 1618/1718 16004KT 9999 FEW020 BKN100 TX30/1620Z TN23/1711Z 
     TEMPO 1618/1622 36010KT 2000 SHRA SCT030TCU BKN070 
     BECMG 1700/1703 00000KT CAVOK